Time;durP1;ratioP1;P1;durP2;ratioP2;P2;SDS_P1;SDS_P2;PMS_P1;PMS_P2;Temp;Humidity;BMP_temperature;BMP_pressure;BME280_temperature;BME280_humidity;BME280_pressure;Samples;Min_cycle;Max_cycle;Signal;HPM_P1;HPM_P2
2022/12/17 13:08:18;;;;;;;;;;;;;;;11.29;72.46;100995.00;4942625;29;19923;-80
2022/12/17 13:11:22;;;;;;;;;;;;;;;11.25;72.83;100994.03;4946269;28;19923;-82
2022/12/17 13:14:12;;;;;;;;;;;;;;;11.46;72.75;101005.97;4939439;29;19918;-82
2022/12/17 13:17:04;;;;;;;;;;;;;;;11.50;72.45;101015.13;4941333;28;19923;-81
2022/12/17 13:19:55;;;;;;;;;;;;;;;11.69;72.30;101014.88;4943285;29;19919;-82
2022/12/17 13:22:47;;;;;;;;;;;;;;;11.75;71.81;101014.47;4939919;29;19919;-82
2022/12/17 13:25:32;;;;;;;;;;;;;;;11.72;69.06;101027.88;4940641;29;19919;-83
2022/12/17 13:28:25;;;;;;;;;;;;;;;11.71;69.17;101040.69;4933117;29;19919;-80
2022/12/17 13:31:15;;;;;;;;;;;;;;;11.81;68.44;101045.91;4936721;29;19923;-80
2022/12/17 13:34:06;;;;;;;;;;;;;;;12.00;66.01;101042.91;4939750;29;20300;-81
2022/12/17 13:37:07;;;;;;;;;;;;;;;12.05;66.21;101045.47;4950432;28;19923;-81
2022/12/17 13:40:02;;;;;;;;;;;;;;;11.98;66.08;101056.88;4952742;29;19919;-81
2022/12/17 13:42:47;;;;;;;;;;;;;;;11.90;65.89;101065.78;4930308;29;20320;-81
2022/12/17 13:45:35;;;;;;;;;;;;;;;12.15;66.46;101055.28;4940238;29;19919;-81
2022/12/17 13:48:24;;;;;;;;;;;;;;;12.26;64.54;101056.59;4941230;29;19938;-80
2022/12/17 13:51:19;;;;;;;;;;;;;;;12.14;64.59;101059.16;4939660;29;19919;-80
2022/12/17 13:54:03;;;;;;;;;;;;;;;12.17;64.57;101069.41;4954226;29;19922;-81
2022/12/17 13:56:48;;;;;;;;;;;;;;;12.21;64.34;101071.19;4943704;29;19931;-81
2022/12/17 13:59:32;;;;;;;;;;;;;;;12.20;63.70;101074.22;4947320;29;19918;-81
2022/12/17 14:02:26;;;;;;;;;;;;;;;12.38;63.58;101073.16;4944434;29;19918;-82
2022/12/17 14:05:22;;;;;;;;;;;;;;;12.21;63.14;101076.63;4952510;29;20384;-81
2022/12/17 14:08:07;;;;;;;;;;;;;;;12.24;63.16;101083.41;4941582;29;19918;-81
2022/12/17 14:12:20;;;;;;;;;;;;;;;12.19;63.81;101086.28;4941320;29;19918;-81
2022/12/17 14:13:56;;;;;;;;;;;;;;;12.25;64.17;101096.69;4943808;29;19919;-81
2022/12/17 14:16:41;;;;;;;;;;;;;;;12.20;63.68;101102.28;4940760;29;19927;-81
2022/12/17 14:19:27;;;;;;;;;;;;;;;12.25;63.42;101110.31;4945369;29;20307;-80
2022/12/17 14:22:19;;;;;;;;;;;;;;;12.30;64.21;101114.81;4930544;29;19918;-81
2022/12/17 14:25:04;;;;;;;;;;;;;;;12.09;63.50;101117.31;4941376;29;19923;-81
2022/12/17 14:28:00;;;;;;;;;;;;;;;12.18;63.84;101125.56;4944548;29;19919;-81
2022/12/17 14:30:45;;;;;;;;;;;;;;;12.26;63.67;101132.94;4942487;29;19918;-81
2022/12/17 14:33:31;;;;;;;;;;;;;;;12.34;63.80;101141.13;4948156;29;20308;-82
2022/12/17 14:36:20;;;;;;;;;;;;;;;12.37;64.36;101139.72;4940907;29;19923;-81
2022/12/17 14:39:14;;;;;;;;;;;;;;;12.33;64.91;101144.22;4941192;29;19919;-81
2022/12/17 14:42:25;;;;;;;;;;;;;;;12.23;64.67;101160.84;4940866;28;19918;-81
2022/12/17 14:45:29;;;;;;;;;;;;;;;12.23;64.87;101166.31;4940161;29;19918;-81
2022/12/17 14:48:14;;;;;;;;;;;;;;;12.12;64.81;101170.44;4957946;28;19919;-82
2022/12/17 14:50:59;;;;;;;;;;;;;;;11.98;65.45;101184.97;4938927;29;20308;-81
2022/12/17 14:53:43;;;;;;;;;;;;;;;11.85;66.52;101183.13;4948077;28;19922;-81
2022/12/17 14:56:28;;;;;;;;;;;;;;;11.92;66.31;101178.03;4940624;29;20397;-81
2022/12/17 14:59:22;;;;;;;;;;;;;;;11.84;66.72;101186.13;4934753;29;19918;-81
2022/12/17 15:02:06;;;;;;;;;;;;;;;12.02;68.21;101195.22;4940405;29;20392;-81
2022/12/17 15:04:58;;;;;;;;;;;;;;;12.08;67.27;101196.72;4944323;29;20640;-82
2022/12/17 15:07:42;;;;;;;;;;;;;;;11.94;67.39;101196.78;4964536;28;19919;-81
2022/12/17 15:10:26;;;;;;;;;;;;;;;11.78;67.36;101201.84;4952971;28;20380;-81
2022/12/17 15:13:11;;;;;;;;;;;;;;;11.70;67.63;101202.53;4937598;29;19923;-80
2022/12/17 15:15:55;;;;;;;;;;;;;;;11.58;68.06;101215.91;4949580;28;19918;-80
2022/12/17 15:18:40;;;;;;;;;;;;;;;11.42;68.40;101217.41;4944292;29;19919;-80
2022/12/17 15:21:25;;;;;;;;;;;;;;;11.25;68.40;101209.09;4936023;29;19919;-80
2022/12/17 15:24:10;;;;;;;;;;;;;;;11.30;68.56;101234.28;4975638;28;20380;-80
2022/12/17 15:26:55;;;;;;;;;;;;;;;11.25;68.26;101237.13;4966793;28;19922;-80
2022/12/17 15:29:40;;;;;;;;;;;;;;;11.10;68.78;101243.72;4946753;29;19919;-83
2022/12/17 15:32:25;;;;;;;;;;;;;;;11.02;68.88;101241.69;4958543;29;19930;-82
2022/12/17 15:35:10;;;;;;;;;;;;;;;10.97;68.94;101255.41;4950829;29;19919;-81
2022/12/17 15:37:54;;;;;;;;;;;;;;;10.96;69.14;101269.34;4950316;29;19922;-82
2022/12/17 15:40:40;;;;;;;;;;;;;;;11.02;69.23;101273.56;4945161;29;20387;-82
2022/12/17 15:43:25;;;;;;;;;;;;;;;11.06;68.68;101274.56;4948746;29;19923;-82
2022/12/17 15:46:09;;;;;;;;;;;;;;;9.63;72.79;101286.38;4946260;29;20340;-82
2022/12/17 15:48:54;;;;;;;;;;;;;;;9.90;72.38;101285.69;4933938;29;19923;-82
2022/12/17 15:51:39;;;;;;;;;;;;;;;10.36;71.58;101282.22;4925425;29;20381;-82
2022/12/17 15:54:24;;;;;;;;;;;;;;;10.10;70.91;101292.69;4948614;29;19918;-82
2022/12/17 15:57:09;;;;;;;;;;;;;;;9.70;72.71;101294.94;4939466;29;19923;-83
2022/12/17 15:59:53;;;;;;;;;;;;;;;10.12;71.52;101298.63;4944163;29;19918;-82
2022/12/17 16:02:38;;;;;;;;;;;;;;;9.63;71.96;101296.41;4919167;29;19919;-84
2022/12/17 16:05:22;;;;;;;;;;;;;;;9.73;73.00;101309.84;4923077;29;19930;-83
2022/12/17 16:08:07;;;;;;;;;;;;;;;10.16;71.07;101310.53;4946825;28;19918;-84
2022/12/17 16:10:51;;;;;;;;;;;;;;;10.06;71.09;101316.91;4947349;28;19927;-83
2022/12/17 16:13:36;;;;;;;;;;;;;;;10.08;70.54;101320.16;4937531;29;19923;-83
2022/12/17 16:16:22;;;;;;;;;;;;;;;9.99;71.37;101310.25;4936190;29;19919;-82
2022/12/17 16:19:06;;;;;;;;;;;;;;;10.19;70.16;101320.81;4945822;29;19919;-82
2022/12/17 16:21:51;;;;;;;;;;;;;;;10.54;68.90;101328.34;4937471;28;20300;-83
2022/12/17 16:24:35;;;;;;;;;;;;;;;10.18;68.91;101339.03;4943908;29;20388;-83
2022/12/17 16:27:20;;;;;;;;;;;;;;;10.42;69.19;101338.88;4951217;29;19918;-83
2022/12/17 16:30:05;;;;;;;;;;;;;;;10.35;69.89;101340.41;4940585;29;19922;-83
2022/12/17 16:32:49;;;;;;;;;;;;;;;10.54;68.17;101347.38;4935722;29;19918;-82
2022/12/17 16:35:34;;;;;;;;;;;;;;;10.40;68.17;101348.47;4936746;29;19978;-82
2022/12/17 16:38:18;;;;;;;;;;;;;;;9.83;69.70;101342.28;4934785;28;19923;-82
2022/12/17 16:41:02;;;;;;;;;;;;;;;9.44;71.51;101340.66;4919902;29;20382;-82
2022/12/17 16:43:46;;;;;;;;;;;;;;;9.21;72.28;101351.53;4919123;29;19919;-83
2022/12/17 16:46:37;;;;;;;;;;;;;;;9.79;70.47;101361.09;4919989;29;19919;-84
2022/12/17 16:49:22;;;;;;;;;;;;;;;9.48;70.52;101369.94;4925011;29;19923;-82
2022/12/17 16:52:07;;;;;;;;;;;;;;;9.85;70.12;101370.75;4958174;28;19918;-85
2022/12/17 16:54:51;;;;;;;;;;;;;;;10.03;69.07;101380.00;4935104;29;19919;-84
2022/12/17 16:57:36;;;;;;;;;;;;;;;9.99;69.82;101386.34;4931129;29;19923;-83
2022/12/17 17:00:20;;;;;;;;;;;;;;;9.68;70.01;101378.63;4938304;29;19919;-84
2022/12/17 17:03:05;;;;;;;;;;;;;;;10.05;68.84;101380.53;4935688;29;19923;-84
2022/12/17 17:05:49;;;;;;;;;;;;;;;9.72;68.66;101376.94;4930366;29;19923;-85
2022/12/17 17:08:37;;;;;;;;;;;;;;;9.72;70.08;101397.84;4932814;29;19919;-84
2022/12/17 17:11:23;;;;;;;;;;;;;;;9.56;68.84;101391.81;4940809;29;19919;-85
2022/12/17 17:14:08;;;;;;;;;;;;;;;9.94;67.59;101389.94;4937450;29;19923;-86
2022/12/17 17:16:52;;;;;;;;;;;;;;;9.69;67.64;101387.56;4934048;29;19926;-83
2022/12/17 17:19:36;;;;;;;;;;;;;;;8.88;71.73;101388.56;4953750;28;20336;-84
2022/12/17 17:22:21;;;;;;;;;;;;;;;9.49;69.79;101394.09;4924229;29;19923;-85
2022/12/17 17:25:05;;;;;;;;;;;;;;;9.68;69.14;101403.06;4920608;29;19931;-84
2022/12/17 17:27:50;;;;;;;;;;;;;;;9.64;68.64;101412.91;4926890;29;19919;-83
2022/12/17 17:30:35;;;;;;;;;;;;;;;9.74;67.04;101414.66;4937667;29;19923;-84
2022/12/17 17:33:19;;;;;;;;;;;;;;;9.64;67.36;101418.31;4940512;29;19918;-84
2022/12/17 17:36:03;;;;;;;;;;;;;;;9.61;67.16;101431.66;4937717;28;19919;-84
2022/12/17 17:38:49;;;;;;;;;;;;;;;9.68;68.28;101429.41;4952045;29;19926;-84
2022/12/17 17:41:34;;;;;;;;;;;;;;;8.99;70.08;101431.53;4970311;28;19930;-84
2022/12/17 17:44:18;;;;;;;;;;;;;;;9.05;70.06;101432.31;4964399;29;19927;-84
2022/12/17 17:47:03;;;;;;;;;;;;;;;9.25;69.53;101437.50;4940003;29;19919;-84
2022/12/17 17:49:48;;;;;;;;;;;;;;;8.89;70.08;101437.06;4949164;29;19919;-84
2022/12/17 17:52:32;;;;;;;;;;;;;;;8.49;72.89;101445.56;4946567;29;19920;-84
2022/12/17 17:55:16;;;;;;;;;;;;;;;8.41;72.50;101452.41;4969657;28;20399;-84
2022/12/17 17:58:02;;;;;;;;;;;;;;;8.31;73.58;101460.59;4956506;28;19923;-84
2022/12/17 18:00:46;;;;;;;;;;;;;;;8.13;74.53;101464.75;4945068;29;19918;-84
2022/12/17 18:03:31;;;;;;;;;;;;;;;7.76;75.69;101460.91;4950436;29;19926;-84
2022/12/17 18:06:15;;;;;;;;;;;;;;;7.92;75.23;101467.88;4950885;29;19938;-82
2022/12/17 18:09:00;;;;;;;;;;;;;;;7.96;73.77;101472.44;4945546;29;19919;-82
2022/12/17 18:11:44;;;;;;;;;;;;;;;7.78;75.49;101473.06;4959001;29;19926;-83
2022/12/17 18:14:28;;;;;;;;;;;;;;;8.53;72.96;101473.75;4970672;28;19919;-83
2022/12/17 18:17:13;;;;;;;;;;;;;;;8.80;71.07;101481.38;4965453;28;19922;-83
2022/12/17 18:19:58;;;;;;;;;;;;;;;8.14;72.54;101487.22;4953691;28;19919;-82
2022/12/17 18:22:44;;;;;;;;;;;;;;;8.55;71.17;101496.75;4942306;29;19919;-83
2022/12/17 18:25:29;;;;;;;;;;;;;;;8.68;69.55;101503.44;4979382;28;19918;-83
2022/12/17 18:28:13;;;;;;;;;;;;;;;8.18;72.18;101507.25;4965865;29;19918;-83
2022/12/17 18:31:03;;;;;;;;;;;;;;;8.34;70.18;101508.81;4967477;28;19919;-82
2022/12/17 18:33:50;;;;;;;;;;;;;;;8.55;69.02;101515.72;4959656;29;19919;-81
2022/12/17 18:36:38;;;;;;;;;;;;;;;8.28;69.07;101531.56;4959070;29;20396;-82
2022/12/17 18:39:23;;;;;;;;;;;;;;;8.65;67.85;101530.28;4957191;29;19981;-82
2022/12/17 18:45:11;;;;;;;;;;;;;;;8.40;69.48;101545.63;4943308;28;19919;-82
2022/12/17 18:47:56;;;;;;;;;;;;;;;8.88;68.01;101549.38;4943448;29;19919;-82
2022/12/17 18:50:40;;;;;;;;;;;;;;;8.66;69.33;101549.00;4960196;28;19922;-82
2022/12/17 18:53:25;;;;;;;;;;;;;;;8.66;68.54;101548.19;4951730;29;20300;-82
2022/12/17 18:56:10;;;;;;;;;;;;;;;8.29;67.74;101554.88;4954069;29;19934;-82
2022/12/17 18:58:55;;;;;;;;;;;;;;;8.45;69.17;101558.34;4961705;28;19923;-82
2022/12/17 19:01:41;;;;;;;;;;;;;;;8.10;69.78;101579.09;4937115;29;19919;-84
2022/12/17 19:04:26;;;;;;;;;;;;;;;8.04;70.16;101573.97;4951297;29;19926;-82
2022/12/17 19:07:11;;;;;;;;;;;;;;;8.40;68.20;101575.44;4961258;28;19918;-82
2022/12/17 19:09:56;;;;;;;;;;;;;;;8.62;67.36;101580.47;4961326;29;19919;-82
2022/12/17 19:12:41;;;;;;;;;;;;;;;8.65;67.14;101584.50;4952274;29;19919;-82
2022/12/17 19:15:25;;;;;;;;;;;;;;;8.73;66.19;101592.88;4961765;29;19922;-82
2022/12/17 19:18:10;;;;;;;;;;;;;;;8.74;66.56;101608.03;4955158;28;19922;-83
2022/12/17 19:20:58;;;;;;;;;;;;;;;8.83;65.60;101609.09;4959578;29;20372;-82
2022/12/17 19:23:42;;;;;;;;;;;;;;;8.27;67.22;101626.69;4949152;28;19918;-82
2022/12/17 19:26:27;;;;;;;;;;;;;;;8.54;66.29;101627.94;4950269;29;19919;-82
2022/12/17 19:29:13;;;;;;;;;;;;;;;8.30;67.03;101635.13;4947977;29;20315;-81
2022/12/17 19:31:57;;;;;;;;;;;;;;;8.41;65.93;101631.28;4970826;28;19918;-81
2022/12/17 19:34:42;;;;;;;;;;;;;;;8.12;66.65;101636.50;4960614;29;19919;-81
2022/12/17 19:37:26;;;;;;;;;;;;;;;8.34;66.32;101625.34;4955698;28;19923;-82
2022/12/17 19:40:11;;;;;;;;;;;;;;;8.51;65.91;101633.94;4953390;29;19919;-82
2022/12/17 19:42:55;;;;;;;;;;;;;;;8.70;65.15;101636.81;4949147;29;19922;-81
2022/12/17 19:45:40;;;;;;;;;;;;;;;8.69;64.91;101629.75;4943631;29;19919;-81
2022/12/17 19:48:24;;;;;;;;;;;;;;;8.53;65.30;101641.81;4943697;29;19919;-82
2022/12/17 19:51:09;;;;;;;;;;;;;;;7.79;67.91;101647.16;4932092;29;19919;-82
2022/12/17 19:53:54;;;;;;;;;;;;;;;7.90;68.23;101646.84;4935487;29;20308;-82
2022/12/17 19:56:39;;;;;;;;;;;;;;;8.28;67.20;101658.13;4921009;29;19919;-81
2022/12/17 19:59:25;;;;;;;;;;;;;;;8.44;66.31;101667.84;4943932;29;20404;-81
2022/12/17 20:02:10;;;;;;;;;;;;;;;8.44;66.39;101662.41;4945402;29;19918;-82
2022/12/17 20:04:54;;;;;;;;;;;;;;;8.18;67.09;101661.66;4940675;29;19918;-81
2022/12/17 20:07:39;;;;;;;;;;;;;;;8.38;66.33;101671.69;4931839;29;19945;-81
2022/12/17 20:10:24;;;;;;;;;;;;;;;8.33;66.08;101672.47;4935207;29;19918;-81
2022/12/17 20:13:08;;;;;;;;;;;;;;;8.14;66.91;101680.38;4936246;29;19919;-80
2022/12/17 20:16:00;;;;;;;;;;;;;;;7.76;68.58;101680.19;4940418;29;19923;-81
2022/12/17 20:18:44;;;;;;;;;;;;;;;8.27;67.22;101683.59;4938942;29;20573;-80
2022/12/17 20:21:29;;;;;;;;;;;;;;;8.44;65.67;101687.63;4934674;29;19919;-81
2022/12/17 20:24:14;;;;;;;;;;;;;;;8.33;66.33;101688.75;4923501;29;19919;-83
2022/12/17 20:26:59;;;;;;;;;;;;;;;8.54;64.91;101689.47;4944056;29;19919;-84
2022/12/17 20:29:43;;;;;;;;;;;;;;;8.40;65.60;101704.72;4957799;29;19919;-83
2022/12/17 20:32:28;;;;;;;;;;;;;;;8.57;65.05;101708.72;4955819;29;19918;-80
2022/12/17 20:35:12;;;;;;;;;;;;;;;8.33;65.38;101715.06;4935200;29;19923;-80
2022/12/17 20:37:57;;;;;;;;;;;;;;;8.38;65.06;101710.41;4940598;28;20333;-79
2022/12/17 20:40:41;;;;;;;;;;;;;;;8.57;64.51;101714.16;4954692;28;19922;-80
2022/12/17 20:43:26;;;;;;;;;;;;;;;8.42;65.08;101724.25;4940069;29;19922;-80
2022/12/17 20:46:10;;;;;;;;;;;;;;;8.58;64.47;101728.53;4938835;29;19919;-79
2022/12/17 20:48:57;;;;;;;;;;;;;;;8.36;64.72;101728.84;4942106;29;19937;-79
2022/12/17 20:51:42;;;;;;;;;;;;;;;8.29;66.02;101722.88;4941867;29;19919;-79
2022/12/17 20:54:26;;;;;;;;;;;;;;;8.40;65.11;101732.63;4969367;28;19918;-80
2022/12/17 20:57:10;;;;;;;;;;;;;;;8.46;64.67;101730.72;4937865;29;19919;-80
2022/12/17 20:59:55;;;;;;;;;;;;;;;8.35;64.73;101738.06;4944810;29;20269;-80
2022/12/17 21:02:39;;;;;;;;;;;;;;;8.35;65.15;101748.91;4939148;29;19923;-78
2022/12/17 21:05:24;;;;;;;;;;;;;;;8.45;64.82;101748.88;4936971;29;19923;-80
2022/12/17 21:08:09;;;;;;;;;;;;;;;8.39;64.60;101749.16;4936956;29;19916;-80
2022/12/17 21:10:56;;;;;;;;;;;;;;;8.25;63.77;101746.19;4939192;29;19923;-80
2022/12/17 21:13:41;;;;;;;;;;;;;;;8.04;65.67;101752.72;4944950;29;19923;-80
2022/12/17 21:16:27;;;;;;;;;;;;;;;8.33;64.80;101745.66;4946814;29;19922;-79
2022/12/17 21:19:13;;;;;;;;;;;;;;;7.88;65.90;101743.78;4938369;28;19923;-80
2022/12/17 21:21:58;;;;;;;;;;;;;;;8.26;65.04;101755.13;4935589;29;19926;-79
2022/12/17 21:24:42;;;;;;;;;;;;;;;8.25;64.85;101754.31;4936273;29;19923;-79
2022/12/17 21:27:27;;;;;;;;;;;;;;;8.26;64.02;101766.78;4950566;29;19922;-79
2022/12/17 21:30:12;;;;;;;;;;;;;;;8.39;64.41;101770.84;4940375;29;19922;-79
2022/12/17 21:32:59;;;;;;;;;;;;;;;8.42;63.88;101778.44;4947324;29;19918;-77
2022/12/17 21:35:43;;;;;;;;;;;;;;;8.11;64.24;101780.34;4924764;29;20574;-79
2022/12/17 21:38:29;;;;;;;;;;;;;;;8.41;63.79;101790.38;4937906;29;19923;-80
2022/12/17 21:41:19;;;;;;;;;;;;;;;8.22;63.91;101790.09;4942578;29;19918;-80
2022/12/17 21:44:05;;;;;;;;;;;;;;;8.03;65.37;101794.44;4949712;28;19919;-80
2022/12/17 21:46:50;;;;;;;;;;;;;;;7.79;66.25;101802.28;4949421;29;19927;-80
2022/12/17 21:49:36;;;;;;;;;;;;;;;7.90;65.79;101795.78;4940932;29;19923;-80
2022/12/17 21:52:20;;;;;;;;;;;;;;;8.02;65.38;101798.25;4933659;29;19919;-79
2022/12/17 21:55:05;;;;;;;;;;;;;;;8.19;64.56;101812.31;4938579;29;20296;-80
2022/12/17 21:57:50;;;;;;;;;;;;;;;8.03;64.63;101818.81;4946495;29;19923;-79
2022/12/17 22:00:35;;;;;;;;;;;;;;;8.11;64.35;101823.69;4931440;29;19918;-80
2022/12/17 22:03:19;;;;;;;;;;;;;;;8.27;63.03;101821.78;4931291;29;19923;-80
2022/12/17 22:06:06;;;;;;;;;;;;;;;8.00;64.24;101822.06;4938245;29;19919;-80
2022/12/17 22:08:51;;;;;;;;;;;;;;;7.92;64.62;101825.31;4943296;29;19937;-79
2022/12/17 22:11:36;;;;;;;;;;;;;;;7.88;64.11;101826.94;4930541;29;19919;-80
2022/12/17 22:14:20;;;;;;;;;;;;;;;7.84;64.28;101823.94;4929073;29;19926;-79
2022/12/17 22:17:05;;;;;;;;;;;;;;;7.74;63.59;101832.88;4933147;29;19919;-79
2022/12/17 22:19:49;;;;;;;;;;;;;;;8.22;62.36;101833.47;4941035;29;19923;-80
2022/12/17 22:22:34;;;;;;;;;;;;;;;8.17;61.92;101849.72;4946759;29;19919;-80
2022/12/17 22:25:18;;;;;;;;;;;;;;;8.02;62.39;101849.72;4936685;29;19919;-80
2022/12/17 22:28:03;;;;;;;;;;;;;;;8.08;61.85;101862.16;4950822;29;19919;-80
2022/12/17 22:33:51;;;;;;;;;;;;;;;7.80;62.28;101854.53;4939545;29;19919;-80
2022/12/17 22:36:35;;;;;;;;;;;;;;;7.68;63.73;101852.91;4935828;29;19918;-79
2022/12/17 22:39:20;;;;;;;;;;;;;;;7.33;65.15;101850.09;4952632;29;19923;-80
2022/12/17 22:45:09;;;;;;;;;;;;;;;7.30;64.62;101859.56;4955183;29;19918;-81
2022/12/17 22:47:53;;;;;;;;;;;;;;;7.41;64.87;101852.31;4945737;29;20455;-81
2022/12/17 22:50:38;;;;;;;;;;;;;;;7.78;63.89;101852.09;4934526;29;19919;-80
2022/12/17 22:53:24;;;;;;;;;;;;;;;8.12;62.77;101863.25;4946269;29;20307;-80
2022/12/17 22:56:08;;;;;;;;;;;;;;;7.39;64.15;101865.28;4950403;29;19919;-81
2022/12/17 22:58:52;;;;;;;;;;;;;;;7.19;64.73;101868.72;4943357;29;19927;-81
2022/12/17 23:01:37;;;;;;;;;;;;;;;7.82;64.27;101872.16;4948006;29;19923;-80
2022/12/17 23:04:21;;;;;;;;;;;;;;;8.14;62.51;101874.63;4949017;29;19919;-80
2022/12/17 23:07:05;;;;;;;;;;;;;;;8.06;62.86;101875.16;4949941;29;19919;-81
2022/12/17 23:09:50;;;;;;;;;;;;;;;8.27;62.25;101889.53;4949395;29;20530;-80
2022/12/17 23:12:50;;;;;;;;;;;;;;;8.10;62.32;101885.19;4949874;29;19918;-80
2022/12/17 23:15:35;;;;;;;;;;;;;;;8.28;61.69;101886.53;4955199;28;19918;-80
2022/12/17 23:18:20;;;;;;;;;;;;;;;7.80;62.68;101903.28;4960664;29;19922;-80
2022/12/17 23:21:07;;;;;;;;;;;;;;;7.86;62.43;101907.63;4950530;29;19919;-80
2022/12/17 23:23:52;;;;;;;;;;;;;;;7.54;63.09;101900.50;4953321;28;19919;-80
2022/12/17 23:26:36;;;;;;;;;;;;;;;7.55;63.48;101901.31;4958234;28;19927;-81
2022/12/17 23:29:21;;;;;;;;;;;;;;;8.02;62.49;101901.16;4964263;29;19919;-80
2022/12/17 23:32:05;;;;;;;;;;;;;;;7.98;61.37;101910.91;4965743;28;19922;-80
2022/12/17 23:34:50;;;;;;;;;;;;;;;8.15;61.62;101917.69;4955014;29;20400;-80
2022/12/17 23:37:34;;;;;;;;;;;;;;;8.05;61.35;101916.88;4964424;28;19919;-80
2022/12/17 23:40:20;;;;;;;;;;;;;;;7.90;62.53;101919.56;4964800;29;20202;-80
2022/12/17 23:43:04;;;;;;;;;;;;;;;7.72;63.49;101913.53;4966893;28;19919;-80
2022/12/17 23:45:49;;;;;;;;;;;;;;;8.15;62.60;101906.06;4966669;28;19918;-80
2022/12/17 23:48:35;;;;;;;;;;;;;;;8.33;61.39;101910.97;4963546;29;19918;-81
2022/12/17 23:51:21;;;;;;;;;;;;;;;8.57;60.88;101914.78;4966362;29;19918;-79
2022/12/17 23:54:06;;;;;;;;;;;;;;;8.51;61.09;101910.44;4967159;29;19918;-80
2022/12/17 23:56:50;;;;;;;;;;;;;;;8.37;61.58;101911.25;4938665;29;19919;-80
2022/12/17 23:59:35;;;;;;;;;;;;;;;8.31;61.67;101909.63;4928929;29;19923;-80
